Time;durP1;ratioP1;P1;durP2;ratioP2;P2;SDS_P1;SDS_P2;PMS_P1;PMS_P2;Temp;Humidity;BMP_temperature;BMP_pressure;BME280_temperature;BME280_humidity;BME280_pressure;Samples;Min_cycle;Max_cycle;Signal;HPM_P1;HPM_P2
2023/08/09 00:02:16;;;;;;;2.17;1.98;;;;;;;16.00;77.75;95092.75;5034223;28;20160;-77
2023/08/09 00:04:41;;;;;;;3.45;2.10;;;;;;;15.96;77.81;95088.19;5043151;28;20171;-77
2023/08/09 00:07:07;;;;;;;4.18;2.35;;;;;;;15.94;77.86;95088.41;5040815;28;20258;-77
2023/08/09 00:09:34;;;;;;;2.70;1.77;;;;;;;15.89;78.13;95091.00;5041542;28;20439;-77
2023/08/09 00:12:00;;;;;;;5.45;1.55;;;;;;;15.70;77.80;95063.03;5042395;28;20662;-77
2023/08/09 00:14:25;;;;;;;1.77;1.50;;;;;;;15.82;78.10;95088.50;5045166;28;20175;-77
2023/08/09 00:16:51;;;;;;;3.25;1.90;;;;;;;15.82;78.95;95088.50;5039686;28;20238;-77
2023/08/09 00:19:16;;;;;;;1.58;1.40;;;;;;;15.70;78.56;95066.47;5043541;28;20188;-78
2023/08/09 00:21:42;;;;;;;2.60;1.77;;;;;;;15.80;78.69;95079.94;5042941;28;20631;-78
2023/08/09 00:24:08;;;;;;;2.15;1.85;;;;;;;15.81;78.91;95086.06;5045432;28;20221;-78
2023/08/09 00:26:33;;;;;;;2.90;1.60;;;;;;;15.79;78.32;95077.53;5040542;28;20171;-77
2023/08/09 00:28:58;;;;;;;2.38;1.80;;;;;;;15.80;78.37;95079.94;5045041;28;20204;-78
2023/08/09 00:31:24;;;;;;;1.92;1.48;;;;;;;15.69;77.94;95064.88;5043655;28;20226;-78
2023/08/09 00:33:49;;;;;;;1.73;1.30;;;;;;;15.73;78.24;95076.63;5045327;28;20167;-78
2023/08/09 00:36:17;;;;;;;1.42;1.33;;;;;;;15.77;78.72;95080.41;5042298;28;20658;-78
2023/08/09 00:38:43;;;;;;;2.40;1.52;;;;;;;15.69;78.41;95069.38;5041724;28;20228;-78
2023/08/09 00:41:08;;;;;;;2.10;1.38;;;;;;;15.75;78.49;95079.03;5042639;28;20159;-77
2023/08/09 00:43:33;;;;;;;3.17;1.40;;;;;;;15.66;78.45;95065.31;5045853;28;20167;-78
2023/08/09 00:45:59;;;;;;;1.42;1.33;;;;;;;15.74;78.45;95080.09;5044255;28;20175;-77
2023/08/09 00:48:25;;;;;;;1.67;1.30;;;;;;;15.74;78.48;95074.78;5042522;28;20190;-77
2023/08/09 00:50:50;;;;;;;2.75;1.95;;;;;;;15.65;78.60;95063.75;5040134;28;20234;-77
2023/08/09 00:53:16;;;;;;;2.72;1.60;;;;;;;15.75;78.52;95073.72;5044507;28;20182;-78
2023/08/09 00:55:42;;;;;;;1.98;1.60;;;;;;;15.74;78.75;95077.44;5045461;28;20171;-78
2023/08/09 00:58:07;;;;;;;3.70;1.70;;;;;;;15.63;78.64;95071.13;5042247;28;20179;-78
2023/08/09 01:00:33;;;;;;;5.35;1.88;;;;;;;15.57;79.10;95066.75;5044512;28;20302;-77
2023/08/09 01:02:59;;;;;;;3.70;1.70;;;;;;;15.56;79.34;95067.00;5040319;28;20178;-77
2023/08/09 01:05:36;;;;;;;6.68;2.95;;;;;;;15.57;79.22;95073.94;5044528;28;20573;-78
2023/08/09 01:08:23;;;;;;;18.65;11.85;;;;;;;15.53;79.98;95067.44;5037340;28;21153;-77
2023/08/09 01:11:12;;;;;;;4.45;2.10;;;;;;;15.51;79.40;95072.16;5040705;28;20206;-77
2023/08/09 01:13:40;;;;;;;6.97;4.38;;;;;;;15.45;79.91;95069.44;5036894;28;20179;-77
2023/08/09 01:16:07;;;;;;;4.50;2.15;;;;;;;15.33;80.05;95044.75;5039096;28;20240;-77
2023/08/09 01:18:35;;;;;;;11.40;6.78;;;;;;;15.48;79.49;95063.63;5043049;28;20213;-77
2023/08/09 01:21:01;;;;;;;6.30;4.15;;;;;;;15.50;79.71;95066.06;5043023;28;20214;-75
2023/08/09 01:23:41;;;;;;;8.50;3.58;;;;;;;15.49;79.59;95059.13;5043667;28;20174;-77
2023/08/09 01:26:06;;;;;;;5.95;3.60;;;;;;;15.46;79.61;95068.38;5043135;28;20224;-77
2023/08/09 01:28:32;;;;;;;3.75;2.83;;;;;;;15.44;79.54;95067.00;5043656;28;20249;-77
2023/08/09 01:30:58;;;;;;;4.63;2.40;;;;;;;15.34;79.41;95059.66;5044481;28;20713;-77
2023/08/09 01:33:25;;;;;;;2.78;2.25;;;;;;;15.29;80.13;95050.78;5045497;28;20190;-77
2023/08/09 01:35:59;;;;;;;5.75;3.67;;;;;;;15.38;79.85;95067.94;5041646;28;20203;-77
2023/08/09 01:38:29;;;;;;;5.63;3.10;;;;;;;15.35;80.17;95065.75;5045003;28;20179;-77
2023/08/09 01:40:56;;;;;;;10.38;6.38;;;;;;;15.39;79.85;95067.69;5037905;28;20674;-77
2023/08/09 01:43:22;;;;;;;8.43;4.40;;;;;;;15.29;79.79;95048.13;5036196;28;20237;-77
2023/08/09 01:45:48;;;;;;;7.40;4.70;;;;;;;15.38;79.31;95071.41;5040152;28;20590;-77
2023/08/09 01:48:14;;;;;;;17.00;9.85;;;;;;;15.20;79.72;95038.94;5038360;28;20270;-77
2023/08/09 01:50:40;;;;;;;3.97;2.67;;;;;;;15.37;79.66;95069.78;5047024;28;20202;-77
2023/08/09 01:53:06;;;;;;;4.60;1.90;;;;;;;15.27;79.81;95061.63;5039947;28;20266;-77
2023/08/09 01:55:32;;;;;;;14.10;7.43;;;;;;;15.20;79.92;95049.53;5043440;28;20265;-77
2023/08/09 01:57:58;;;;;;;17.58;10.35;;;;;;;15.18;80.16;95047.13;5047136;28;20171;-77
2023/08/09 02:00:23;;;;;;;10.93;7.55;;;;;;;15.31;80.02;95069.91;5037456;28;20300;-77
2023/08/09 02:02:51;;;;;;;10.43;6.43;;;;;;;15.19;80.27;95055.88;5044904;28;20221;-77
2023/08/09 02:05:17;;;;;;;9.53;5.53;;;;;;;15.23;80.14;95071.09;5039108;28;20641;-77
2023/08/09 02:07:42;;;;;;;7.72;4.85;;;;;;;15.16;80.20;95061.66;5042404;28;20562;-77
2023/08/09 02:10:10;;;;;;;10.48;6.68;;;;;;;15.19;80.32;95072.59;5041511;28;20197;-78
2023/08/09 02:12:39;;;;;;;5.75;3.78;;;;;;;15.10;80.49;95055.44;5040825;28;20175;-78
2023/08/09 02:15:05;;;;;;;6.35;4.75;;;;;;;15.15;80.48;95068.78;5045245;28;20171;-78
2023/08/09 02:17:31;;;;;;;7.93;4.75;;;;;;;15.12;80.35;95069.28;5039212;28;20175;-77
2023/08/09 02:19:58;;;;;;;8.05;5.38;;;;;;;15.09;80.28;95070.53;5047249;28;20292;-78
2023/08/09 02:22:24;;;;;;;8.20;5.80;;;;;;;14.99;80.52;95067.66;5043699;28;20175;-74
2023/08/09 02:24:50;;;;;;;5.20;3.83;;;;;;;14.95;81.01;95057.78;5042253;28;20175;-76
2023/08/09 02:27:15;;;;;;;9.95;5.05;;;;;;;15.02;80.59;95069.88;5024185;28;20261;-75
2023/08/09 02:29:41;;;;;;;10.10;4.53;;;;;;;14.90;80.67;95055.81;5045575;28;20282;-78
2023/08/09 02:32:06;;;;;;;5.13;3.40;;;;;;;14.97;80.68;95069.75;5040714;28;20646;-78
2023/08/09 02:34:32;;;;;;;5.03;3.13;;;;;;;14.96;80.73;95073.44;5048512;28;20175;-77
2023/08/09 02:36:57;;;;;;;3.40;1.95;;;;;;;14.96;80.68;95080.59;5040339;28;20668;-77
2023/08/09 02:39:24;;;;;;;10.50;5.53;;;;;;;14.95;80.69;95079.00;5043389;28;20171;-77
2023/08/09 02:41:49;;;;;;;5.05;3.08;;;;;;;14.93;80.56;95078.41;5039966;28;20242;-77
2023/08/09 02:44:15;;;;;;;2.25;2.05;;;;;;;14.78;80.95;95070.94;5041423;28;20180;-78
2023/08/09 02:46:41;;;;;;;2.57;2.00;;;;;;;14.80;81.35;95087.38;5041367;28;20180;-77
2023/08/09 02:49:07;;;;;;;5.22;2.88;;;;;;;14.80;81.69;95090.03;5044177;28;20210;-77
2023/08/09 02:51:32;;;;;;;3.00;2.30;;;;;;;14.77;81.63;95087.88;5041090;28;20568;-77
2023/08/09 02:54:05;;;;;;;4.90;2.33;;;;;;;14.81;81.61;95085.53;5042196;28;20171;-77
2023/08/09 02:56:32;;;;;;;2.63;2.20;;;;;;;14.83;81.69;95092.25;5036172;28;20258;-77
2023/08/09 02:58:59;;;;;;;2.10;1.90;;;;;;;14.83;81.29;95088.78;5038901;28;20164;-77
2023/08/09 03:01:25;;;;;;;5.95;2.00;;;;;;;14.73;81.21;95081.41;5038037;28;20496;-77
2023/08/09 03:03:51;;;;;;;3.00;2.55;;;;;;;14.75;81.73;95084.63;5037165;28;20408;-77
2023/08/09 03:06:18;;;;;;;14.23;7.13;;;;;;;14.76;81.99;95085.44;5044236;28;20413;-77
2023/08/09 03:08:48;;;;;;;5.53;2.70;;;;;;;14.79;81.66;95090.28;5040906;28;20196;-77
2023/08/09 03:11:13;;;;;;;14.38;7.90;;;;;;;14.85;81.64;95095.47;5040716;28;20183;-77
2023/08/09 03:13:39;;;;;;;10.05;4.03;;;;;;;14.86;81.41;95101.56;5040811;28;20534;-77
2023/08/09 03:16:05;;;;;;;8.18;5.07;;;;;;;14.72;81.55;95082.44;5039109;28;20442;-77
2023/08/09 03:18:31;;;;;;;7.27;5.00;;;;;;;14.85;81.79;95095.47;5040200;28;20405;-77
2023/08/09 03:20:56;;;;;;;6.88;4.18;;;;;;;14.81;81.32;95096.16;5042983;28;20466;-78
2023/08/09 03:23:22;;;;;;;8.82;4.22;;;;;;;14.81;81.41;95096.16;5043724;28;20462;-78
2023/08/09 03:25:47;;;;;;;8.18;3.50;;;;;;;14.85;81.43;95102.63;5037831;28;20561;-75
2023/08/09 03:28:13;;;;;;;4.13;3.42;;;;;;;14.89;81.68;95103.75;5037175;28;20195;-75
2023/08/09 03:30:38;;;;;;;7.27;3.23;;;;;;;14.85;81.81;95100.78;5052363;28;20431;-75
2023/08/09 03:33:04;;;;;;;7.40;3.08;;;;;;;14.78;81.96;95089.47;5047454;28;20564;-77
2023/08/09 03:35:30;;;;;;;4.82;2.70;;;;;;;14.79;81.53;95098.25;5045630;28;20411;-77
2023/08/09 03:37:55;;;;;;;7.00;3.50;;;;;;;14.87;81.71;95117.25;5044018;28;20592;-77
2023/08/09 03:40:21;;;;;;;4.07;2.40;;;;;;;14.91;81.56;95114.94;5038544;28;20168;-77
2023/08/09 03:42:46;;;;;;;2.72;2.15;;;;;;;14.93;81.41;95108.38;5041982;28;20175;-77
2023/08/09 03:45:12;;;;;;;4.22;2.40;;;;;;;14.98;81.44;95119.09;5034325;28;20529;-77
2023/08/09 03:47:37;;;;;;;4.25;2.50;;;;;;;14.86;81.02;95093.63;5044147;28;20244;-77
2023/08/09 03:50:06;;;;;;;7.25;2.83;;;;;;;15.03;80.73;95121.06;5043467;28;20194;-76
2023/08/09 03:52:32;;;;;;;10.77;2.88;;;;;;;15.06;80.68;95129.34;5045635;28;20182;-77
2023/08/09 03:54:58;;;;;;;4.43;2.67;;;;;;;15.09;80.94;95128.06;5042035;28;20178;-76
2023/08/09 03:57:23;;;;;;;9.63;4.35;;;;;;;15.15;80.66;95131.63;5043071;28;20175;-76
2023/08/09 03:59:51;;;;;;;5.25;3.90;;;;;;;15.17;80.51;95126.91;5043790;28;20646;-77
2023/08/09 04:02:17;;;;;;;16.03;4.67;;;;;;;15.23;80.49;95132.09;5032927;28;20213;-77
2023/08/09 04:04:43;;;;;;;14.32;4.18;;;;;;;15.35;80.56;95132.88;5035804;28;20217;-77
2023/08/09 04:07:09;;;;;;;4.50;3.08;;;;;;;15.39;79.81;95133.25;5047852;28;20229;-77
2023/08/09 04:09:35;;;;;;;13.45;4.90;;;;;;;15.43;79.33;95137.84;5040058;28;20278;-76
2023/08/09 04:12:01;;;;;;;12.63;4.43;;;;;;;15.46;79.53;95118.81;5024709;28;20545;-76
2023/08/09 04:14:27;;;;;;;9.30;4.07;;;;;;;15.65;78.89;95131.94;5040425;28;20191;-77
2023/08/09 04:16:52;;;;;;;11.00;3.63;;;;;;;15.74;78.56;95131.31;5042992;28;20168;-77
2023/08/09 04:19:18;;;;;;;7.65;3.85;;;;;;;15.89;78.27;95130.81;5041611;28;20544;-77
2023/08/09 04:21:43;;;;;;;8.95;3.65;;;;;;;15.90;78.16;95100.56;5048020;28;20171;-77
2023/08/09 04:24:12;;;;;;;13.75;4.97;;;;;;;16.34;77.29;95122.88;5042864;28;20168;-77
2023/08/09 04:26:38;;;;;;;9.45;3.58;;;;;;;16.73;76.80;95138.94;5037249;28;20226;-75
2023/08/09 04:29:03;;;;;;;11.20;2.85;;;;;;;17.05;74.84;95142.63;5042439;28;20772;-76
2023/08/09 04:31:29;;;;;;;13.00;5.97;;;;;;;17.35;73.96;95140.41;5023525;28;20177;-75
2023/08/09 04:33:54;;;;;;;20.45;8.15;;;;;;;17.77;72.77;95136.44;5046114;28;20187;-76
2023/08/09 04:36:20;;;;;;;13.00;7.65;;;;;;;18.18;71.49;95137.69;5045729;28;20198;-76
2023/08/09 04:38:46;;;;;;;14.05;5.97;;;;;;;18.54;69.13;95138.84;5042935;28;20251;-76
2023/08/09 04:41:12;;;;;;;12.10;2.78;;;;;;;18.88;68.19;95137.56;5043499;28;20178;-76
2023/08/09 04:43:42;;;;;;;20.88;9.05;;;;;;;19.29;67.07;95140.50;5044869;28;20560;-76
2023/08/09 04:46:07;;;;;;;15.35;8.10;;;;;;;19.66;65.74;95149.28;5035453;28;20167;-76
2023/08/09 04:48:33;;;;;;;12.73;4.72;;;;;;;20.09;64.44;95149.97;5016316;28;20215;-76
2023/08/09 04:50:58;;;;;;;13.32;8.07;;;;;;;20.58;62.80;95156.53;5044944;28;20255;-76
2023/08/09 04:53:24;;;;;;;6.40;3.15;;;;;;;21.06;61.96;95151.75;5041866;28;20166;-76
2023/08/09 04:55:50;;;;;;;14.25;5.55;;;;;;;21.50;60.50;95153.88;5042000;28;20199;-76
2023/08/09 04:58:16;;;;;;;6.93;2.88;;;;;;;21.99;57.98;95151.31;5044964;28;20179;-76
2023/08/09 05:00:42;;;;;;;4.32;2.22;;;;;;;22.36;55.34;95156.22;5042697;28;20188;-76
2023/08/09 05:03:07;;;;;;;10.18;4.57;;;;;;;22.79;55.42;95152.75;5039251;28;20612;-76
2023/08/09 05:05:33;;;;;;;5.45;2.88;;;;;;;23.35;54.07;95151.50;5045493;28;20270;-76
2023/08/09 05:07:58;;;;;;;12.82;4.65;;;;;;;23.91;52.35;95149.03;5043203;28;20171;-76
2023/08/09 05:10:24;;;;;;;4.80;2.88;;;;;;;24.42;50.57;95160.78;5040380;28;20307;-76
2023/08/09 05:12:49;;;;;;;7.03;2.80;;;;;;;24.81;49.50;95157.81;5036063;28;20218;-76
2023/08/09 05:15:14;;;;;;;5.43;2.20;;;;;;;25.47;47.81;95164.03;5038513;28;20167;-76
2023/08/09 05:17:40;;;;;;;6.50;2.17;;;;;;;26.00;46.46;95140.13;5042847;28;20178;-76
2023/08/09 05:20:07;;;;;;;2.03;1.83;;;;;;;26.82;44.35;95171.59;5043132;28;20163;-76
2023/08/09 05:22:32;;;;;;;4.15;3.08;;;;;;;27.21;43.14;95176.41;5049303;28;20342;-76
2023/08/09 05:24:58;;;;;;;26.65;15.90;;;;;;;27.63;42.82;95173.19;5036236;28;20667;-76
2023/08/09 05:27:24;;;;;;;14.75;4.78;;;;;;;28.08;40.92;95170.34;5039615;28;20179;-76
2023/08/09 05:29:49;;;;;;;7.60;2.13;;;;;;;28.30;40.79;95162.16;5037432;28;20219;-77
2023/08/09 05:32:15;;;;;;;3.97;1.88;;;;;;;28.74;39.52;95179.28;5041897;28;20206;-77
2023/08/09 05:34:40;;;;;;;2.38;1.77;;;;;;;29.08;40.40;95170.38;5040496;28;20179;-76
2023/08/09 05:37:06;;;;;;;8.70;2.53;;;;;;;29.67;38.14;95176.06;5035718;28;20651;-76
2023/08/09 05:39:31;;;;;;;2.22;1.67;;;;;;;29.98;36.71;95172.00;5034628;28;20175;-76
2023/08/09 05:41:57;;;;;;;56.78;4.05;;;;;;;30.12;36.42;95173.69;5030526;28;20181;-77
2023/08/09 05:44:23;;;;;;;4.50;1.60;;;;;;;30.31;36.87;95172.16;5040249;28;20644;-76
2023/08/09 05:46:48;;;;;;;4.13;2.35;;;;;;;30.80;35.77;95169.00;5044672;28;20179;-76
2023/08/09 05:49:14;;;;;;;4.72;1.95;;;;;;;31.11;34.66;95170.25;5037803;28;20198;-76
2023/08/09 05:51:39;;;;;;;2.50;2.30;;;;;;;31.27;34.81;95164.19;5026887;28;20613;-76
2023/08/09 05:54:04;;;;;;;5.90;2.50;;;;;;;31.42;34.21;95156.19;5037455;28;20560;-76
2023/08/09 05:56:30;;;;;;;3.25;1.85;;;;;;;31.26;34.65;95165.31;5037545;28;20646;-76
2023/08/09 05:58:55;;;;;;;3.13;2.60;;;;;;;31.19;34.33;95154.16;5044214;28;20179;-76
2023/08/09 06:01:21;;;;;;;4.45;2.78;;;;;;;31.26;34.06;95162.59;5037077;28;20183;-76
2023/08/09 06:03:47;;;;;;;2.97;2.28;;;;;;;31.00;35.38;95168.22;5033852;28;20525;-76
2023/08/09 06:06:13;;;;;;;3.45;2.58;;;;;;;30.87;34.78;95153.78;5037738;28;20179;-76
2023/08/09 06:08:39;;;;;;;3.92;1.40;;;;;;;31.22;34.78;95172.56;5036441;28;20203;-76
2023/08/09 06:11:04;;;;;;;6.80;1.90;;;;;;;30.76;34.39;95168.88;5040470;28;20178;-76
2023/08/09 06:13:30;;;;;;;2.67;1.95;;;;;;;30.56;36.05;95164.22;5037405;28;20538;-76
2023/08/09 06:15:56;;;;;;;4.45;2.33;;;;;;;30.79;34.88;95160.06;5033519;28;20176;-76
2023/08/09 06:18:21;;;;;;;1.67;1.40;;;;;;;30.26;35.10;95161.50;5033714;28;20167;-77
2023/08/09 06:20:48;;;;;;;2.53;1.83;;;;;;;29.85;37.21;95166.75;5035820;28;20187;-76
2023/08/09 06:23:14;;;;;;;3.00;1.67;;;;;;;29.29;37.65;95152.34;5032341;28;20217;-76
2023/08/09 06:25:40;;;;;;;2.70;1.50;;;;;;;28.72;39.67;95130.81;5031341;28;20245;-76
2023/08/09 06:28:06;;;;;;;3.45;1.40;;;;;;;28.69;38.60;95150.44;5034359;28;20613;-75
2023/08/09 06:30:31;;;;;;;4.95;1.65;;;;;;;28.34;38.64;95137.97;5031534;28;20254;-75
2023/08/09 06:32:57;;;;;;;6.38;1.88;;;;;;;27.73;41.04;95142.34;5033646;28;20182;-75
2023/08/09 06:35:23;;;;;;;1.95;1.70;;;;;;;27.52;42.28;95147.47;5034560;28;20250;-75
2023/08/09 06:37:49;;;;;;;2.33;2.03;;;;;;;27.47;42.48;95141.41;5033165;28;20628;-76
2023/08/09 06:40:16;;;;;;;7.43;4.20;;;;;;;27.34;43.79;95114.09;5030445;28;20183;-75
2023/08/09 06:42:42;;;;;;;2.95;2.20;;;;;;;27.45;40.54;95132.78;5038283;28;20278;-78
2023/08/09 06:45:08;;;;;;;3.90;1.95;;;;;;;27.42;42.94;95150.41;5031700;28;20267;-76
2023/08/09 06:47:33;;;;;;;4.88;3.45;;;;;;;27.45;42.75;95141.69;5029154;28;20222;-75
2023/08/09 06:50:00;;;;;;;2.42;2.17;;;;;;;27.51;42.60;95147.75;5025005;28;20235;-77
2023/08/09 06:52:26;;;;;;;9.60;4.80;;;;;;;27.51;41.33;95129.63;5039129;28;20172;-77
2023/08/09 06:54:52;;;;;;;6.03;2.20;;;;;;;27.33;42.76;95138.78;5042533;28;20191;-78
2023/08/09 06:57:20;;;;;;;3.95;2.55;;;;;;;26.92;42.31;95138.97;5034327;28;20168;-78
2023/08/09 06:59:47;;;;;;;5.13;3.60;;;;;;;26.46;43.80;95126.50;5043294;28;20233;-76
2023/08/09 07:02:12;;;;;;;9.68;5.05;;;;;;;26.18;45.75;95123.03;5038770;28;20179;-75
2023/08/09 07:04:37;;;;;;;7.85;4.40;;;;;;;26.27;46.29;95125.84;5035275;28;20179;-75
2023/08/09 07:07:03;;;;;;;4.00;2.92;;;;;;;26.36;45.90;95102.41;5048057;28;20171;-78
2023/08/09 07:09:30;;;;;;;6.85;2.83;;;;;;;26.58;44.82;95107.03;5042136;28;20686;-79
2023/08/09 07:11:57;;;;;;;8.48;2.65;;;;;;;26.56;45.26;95104.63;5040301;28;20184;-77
2023/08/09 07:14:23;;;;;;;4.28;2.53;;;;;;;26.27;44.72;95115.84;5041426;28;20601;-77
2023/08/09 07:16:49;;;;;;;3.25;2.40;;;;;;;26.07;46.00;95115.44;5048466;28;20260;-77
2023/08/09 07:19:15;;;;;;;8.05;3.05;;;;;;;26.05;44.49;95110.31;5044336;28;20523;-78
2023/08/09 07:21:40;;;;;;;5.88;2.90;;;;;;;26.29;45.44;95115.53;5041631;28;20561;-76
2023/08/09 07:24:06;;;;;;;3.25;2.63;;;;;;;26.35;44.92;95111.63;5037958;28;20183;-76
2023/08/09 07:26:31;;;;;;;2.55;2.17;;;;;;;26.43;44.72;95116.28;5035200;28;20703;-76
2023/08/09 07:28:57;;;;;;;5.55;3.20;;;;;;;26.67;44.81;95116.81;5034202;28;20711;-74
2023/08/09 07:31:23;;;;;;;4.97;3.17;;;;;;;26.68;42.48;95117.63;5035434;28;20168;-74
2023/08/09 07:33:51;;;;;;;3.90;2.90;;;;;;;26.38;42.98;95113.69;5033591;28;20172;-77
2023/08/09 07:36:16;;;;;;;3.58;2.85;;;;;;;26.42;43.50;95111.19;5033340;28;20184;-73
2023/08/09 07:38:42;;;;;;;3.15;2.80;;;;;;;26.02;44.17;95104.75;5037601;28;20178;-74
2023/08/09 07:41:09;;;;;;;6.07;3.00;;;;;;;25.86;45.00;95105.03;5038519;28;20171;-74
2023/08/09 07:43:35;;;;;;;6.22;3.17;;;;;;;26.17;47.05;95088.22;5048295;28;20178;-74
2023/08/09 07:46:03;;;;;;;7.50;3.22;;;;;;;26.58;44.24;95105.13;5045629;28;20175;-74
2023/08/09 07:48:29;;;;;;;9.77;3.13;;;;;;;26.92;44.22;95101.13;5052639;28;20199;-74
2023/08/09 07:50:55;;;;;;;5.03;2.97;;;;;;;26.81;43.58;95102.47;5037511;28;20207;-74
2023/08/09 07:53:21;;;;;;;9.30;3.50;;;;;;;27.33;43.84;95099.00;5040311;28;20690;-75
2023/08/09 07:55:46;;;;;;;7.75;3.00;;;;;;;27.27;41.77;95102.94;5032008;28;20267;-76
2023/08/09 07:58:11;;;;;;;4.93;2.33;;;;;;;27.58;42.52;95102.97;5032920;28;20245;-76
2023/08/09 08:00:37;;;;;;;10.18;2.97;;;;;;;27.55;40.82;95097.38;5015789;28;20191;-76
2023/08/09 08:03:03;;;;;;;4.32;3.03;;;;;;;27.57;41.06;95087.06;5036231;28;20258;-76
2023/08/09 08:05:29;;;;;;;5.57;3.10;;;;;;;27.62;41.60;95090.41;5031445;28;20179;-75
2023/08/09 08:07:55;;;;;;;3.40;2.80;;;;;;;27.64;40.39;95092.81;5033855;28;20172;-75
2023/08/09 08:10:20;;;;;;;3.78;2.70;;;;;;;27.86;41.30;95091.91;5031654;28;20188;-75
2023/08/09 08:12:48;;;;;;;7.80;3.00;;;;;;;27.61;41.29;95090.72;5032475;28;20191;-75
2023/08/09 08:15:14;;;;;;;2.75;2.40;;;;;;;27.01;40.85;95089.28;5032609;28;20171;-74
2023/08/09 08:17:41;;;;;;;2.83;2.38;;;;;;;27.14;40.90;95093.03;5035103;28;20709;-75
2023/08/09 08:20:15;;;;;;;2.72;2.20;;;;;;;27.09;40.20;95087.72;5046261;28;20202;-75
2023/08/09 08:22:42;;;;;;;3.15;1.90;;;;;;;27.27;40.92;95081.31;5033339;28;20171;-75
2023/08/09 08:25:10;;;;;;;3.25;2.03;;;;;;;27.42;39.48;95078.19;5034617;28;20176;-76
2023/08/09 08:27:37;;;;;;;2.55;2.17;;;;;;;27.14;39.98;95087.63;5037354;28;20217;-75
2023/08/09 08:30:04;;;;;;;3.30;1.77;;;;;;;27.15;40.51;95083.00;5039099;28;20710;-75
2023/08/09 08:32:30;;;;;;;4.70;2.08;;;;;;;27.14;40.66;95076.00;5040161;28;20182;-76
2023/08/09 08:34:56;;;;;;;4.10;1.92;;;;;;;27.10;40.79;95078.50;5037319;28;20242;-76
2023/08/09 08:37:22;;;;;;;3.30;2.10;;;;;;;26.74;41.90;95091.25;5031656;28;20203;-76
2023/08/09 08:39:48;;;;;;;4.32;1.83;;;;;;;26.91;42.70;95084.13;5027849;28;20172;-76
2023/08/09 08:42:13;;;;;;;1.70;1.60;;;;;;;27.26;39.84;95076.22;5028768;28;20179;-77
2023/08/09 08:44:39;;;;;;;1.70;1.33;;;;;;;27.21;40.32;95076.34;5029370;28;20179;-76
2023/08/09 08:47:05;;;;;;;3.45;1.85;;;;;;;27.21;41.45;95068.25;5030237;28;20176;-77
2023/08/09 08:49:33;;;;;;;2.95;1.60;;;;;;;27.24;42.67;95063.03;5030447;28;20257;-77
2023/08/09 08:52:03;;;;;;;3.05;1.85;;;;;;;27.32;42.12;95056.84;5039927;28;20254;-77
2023/08/09 08:54:29;;;;;;;4.60;1.85;;;;;;;27.06;41.56;95057.81;5050554;28;20622;-77
2023/08/09 08:56:54;;;;;;;2.72;1.83;;;;;;;26.40;42.89;95054.78;5050653;28;20409;-77
2023/08/09 08:59:21;;;;;;;2.95;1.80;;;;;;;26.62;42.29;95046.72;5050587;28;20253;-77
2023/08/09 09:01:47;;;;;;;5.82;1.50;;;;;;;26.88;41.20;95043.38;5050439;28;20182;-76
2023/08/09 09:04:13;;;;;;;6.15;1.70;;;;;;;27.22;41.33;95032.78;5050520;28;20171;-77
2023/08/09 09:06:40;;;;;;;3.88;2.00;;;;;;;27.29;40.88;95032.34;5050525;28;20254;-77
2023/08/09 09:09:13;;;;;;;3.65;1.70;;;;;;;27.17;40.43;95037.50;5036160;28;20192;-77
2023/08/09 09:11:39;;;;;;;2.42;1.38;;;;;;;26.82;41.24;95041.88;5050521;28;20175;-76
2023/08/09 09:14:10;;;;;;;5.45;1.40;;;;;;;26.80;41.34;95027.91;5050168;28;20689;-76
2023/08/09 09:16:36;;;;;;;2.83;1.70;;;;;;;27.12;41.64;95037.66;5049241;28;20175;-76
2023/08/09 09:19:02;;;;;;;1.55;1.40;;;;;;;27.26;41.43;95030.25;5050164;28;20224;-77
2023/08/09 09:21:31;;;;;;;2.03;1.60;;;;;;;26.94;41.91;95026.75;5050156;28;20178;-77
2023/08/09 09:23:56;;;;;;;3.45;1.73;;;;;;;26.41;43.08;94991.56;5050086;28;20179;-76
2023/08/09 09:26:23;;;;;;;1.90;1.80;;;;;;;26.78;42.00;95022.00;5049945;28;20620;-76
2023/08/09 09:28:48;;;;;;;1.70;1.60;;;;;;;26.23;42.32;94996.00;5049609;28;20207;-77
2023/08/09 09:31:19;;;;;;;1.70;1.60;;;;;;;26.28;43.52;95006.75;5050096;28;20187;-76
2023/08/09 09:33:47;;;;;;;2.47;1.70;;;;;;;26.49;45.08;95007.03;5050080;28;20202;-76
2023/08/09 09:36:13;;;;;;;1.30;1.20;;;;;;;26.96;44.46;95013.72;5032278;28;20562;-76
2023/08/09 09:38:39;;;;;;;2.58;1.50;;;;;;;26.92;42.49;95011.94;5030044;28;20190;-76
2023/08/09 09:41:07;;;;;;;1.83;1.52;;;;;;;26.73;42.33;95008.63;5029900;28;20175;-76
2023/08/09 09:43:38;;;;;;;1.40;1.30;;;;;;;26.52;42.21;95006.44;5029985;28;20198;-77
2023/08/09 09:46:03;;;;;;;1.77;1.50;;;;;;;26.28;42.24;94982.44;5029905;28;20194;-76
2023/08/09 09:48:29;;;;;;;1.80;1.65;;;;;;;26.47;43.20;94998.44;5029779;28;20191;-76
2023/08/09 09:50:55;;;;;;;2.33;1.58;;;;;;;26.21;43.42;94984.72;5029727;28;20196;-77
2023/08/09 09:53:21;;;;;;;2.13;1.90;;;;;;;26.11;43.69;94946.41;5029725;28;20180;-76
2023/08/09 09:55:47;;;;;;;2.15;1.65;;;;;;;26.48;44.05;94986.53;5029381;28;20241;-76
2023/08/09 09:58:13;;;;;;;3.63;1.70;;;;;;;26.31;42.89;94981.00;5029592;28;20562;-76
2023/08/09 10:00:54;;;;;;;3.33;1.65;;;;;;;26.29;42.47;94975.16;5029690;28;20171;-77
2023/08/09 10:03:23;;;;;;;4.70;1.58;;;;;;;26.07;44.53;94965.09;5029674;28;20171;-76
2023/08/09 10:05:49;;;;;;;1.75;1.60;;;;;;;25.97;42.13;94980.72;5029703;28;20175;-76
2023/08/09 10:08:16;;;;;;;1.85;1.48;;;;;;;25.67;40.57;94984.88;5029501;28;20643;-76
2023/08/09 10:10:44;;;;;;;2.90;1.60;;;;;;;25.60;41.89;94979.88;5029543;28;20253;-76
2023/08/09 10:13:14;;;;;;;1.77;1.67;;;;;;;25.58;43.55;94959.69;5029534;28;20204;-76
2023/08/09 10:15:44;;;;;;;1.70;1.60;;;;;;;25.82;42.87;94977.25;5029500;28;20180;-76
2023/08/09 10:18:18;;;;;;;4.20;1.52;;;;;;;25.76;42.93;94969.59;5029458;28;20219;-76
2023/08/09 10:20:50;;;;;;;1.98;1.88;;;;;;;25.69;42.74;94972.69;5029583;28;20178;-76
2023/08/09 10:23:31;;;;;;;3.47;1.55;;;;;;;25.88;45.28;94959.84;5043142;28;20174;-76
2023/08/09 10:25:57;;;;;;;2.40;1.92;;;;;;;25.96;43.14;94968.31;5048681;28;20179;-76
2023/08/09 10:28:45;;;;;;;2.47;1.77;;;;;;;25.84;43.13;94953.47;5052641;28;20236;-76
2023/08/09 10:31:13;;;;;;;1.90;1.80;;;;;;;25.73;42.84;94945.91;5006000;28;20225;-77
2023/08/09 10:34:07;;;;;;;1.75;1.65;;;;;;;25.91;44.73;94937.66;4994470;28;20522;-76
2023/08/09 10:36:34;;;;;;;2.30;2.08;;;;;;;25.92;44.57;94938.47;4996428;28;20286;-77
2023/08/09 10:39:08;;;;;;;4.72;1.50;;;;;;;26.11;43.11;94941.78;4991740;28;20251;-77
2023/08/09 10:41:33;;;;;;;1.50;1.40;;;;;;;25.92;42.80;94927.66;4993446;28;20187;-77
2023/08/09 10:44:03;;;;;;;2.85;1.40;;;;;;;25.95;42.40;94928.97;4992574;28;20181;-77
2023/08/09 10:46:32;;;;;;;1.70;1.50;;;;;;;25.93;42.65;94924.66;4997304;28;20173;-77
2023/08/09 10:49:03;;;;;;;2.55;1.95;;;;;;;26.08;43.01;94914.59;5013091;28;20558;-77
2023/08/09 10:51:29;;;;;;;1.60;1.50;;;;;;;26.19;43.37;94921.38;4998009;28;20173;-77
2023/08/09 10:54:05;;;;;;;1.83;1.40;;;;;;;26.24;42.56;94924.72;4996633;28;20687;-77
2023/08/09 10:56:40;;;;;;;1.30;1.20;;;;;;;26.22;42.04;94909.94;4992230;28;20187;-77
2023/08/09 10:59:12;;;;;;;24.80;3.25;;;;;;;26.32;43.29;94912.41;4998933;28;20165;-77
2023/08/09 11:01:40;;;;;;;2.88;1.70;;;;;;;26.52;41.23;94913.81;4994744;28;20176;-77
2023/08/09 11:04:10;;;;;;;1.63;1.48;;;;;;;26.48;40.79;94910.13;4995674;28;20207;-76
2023/08/09 11:06:41;;;;;;;1.63;1.52;;;;;;;26.40;41.00;94919.78;5000187;28;20192;-77
2023/08/09 11:09:11;;;;;;;1.50;1.40;;;;;;;26.06;42.86;94916.81;4997885;28;20193;-78
2023/08/09 11:11:37;;;;;;;4.63;1.70;;;;;;;25.98;43.12;94899.47;4998833;28;20567;-77
2023/08/09 11:14:04;;;;;;;2.08;1.88;;;;;;;26.09;42.80;94894.63;4996799;28;20172;-78
2023/08/09 11:16:30;;;;;;;5.53;1.67;;;;;;;26.23;44.35;94895.34;5000996;28;20176;-78
2023/08/09 11:18:59;;;;;;;1.60;1.50;;;;;;;26.49;42.03;94885.50;5001535;28;20644;-77
2023/08/09 11:21:24;;;;;;;1.73;1.50;;;;;;;26.85;43.50;94890.75;5003783;28;20253;-77
2023/08/09 11:23:59;;;;;;;4.75;1.92;;;;;;;26.99;40.62;94885.25;4995065;28;20209;-78
2023/08/09 11:26:25;;;;;;;2.67;1.63;;;;;;;27.06;41.45;94882.13;4997827;28;20203;-77
2023/08/09 11:28:50;;;;;;;1.92;1.55;;;;;;;27.00;38.90;94867.94;4998278;28;20201;-77
2023/08/09 11:31:16;;;;;;;1.50;1.40;;;;;;;27.01;39.45;94862.22;5038751;28;20224;-77